sensor_id;sensor_type;location;lat;lon;timestamp;pressure;altitude;pressure_sealevel;temperature;humidity
59240;BME280;45010;53.640;10.578;2022-11-14T00:01:21;101615.28;;;23.23;43.00
59240;BME280;45010;53.640;10.578;2022-11-14T00:04:22;101619.75;;;23.23;42.97
59240;BME280;45010;53.640;10.578;2022-11-14T00:07:22;101607.06;;;23.18;43.00
59240;BME280;45010;53.640;10.578;2022-11-14T00:10:23;101612.16;;;23.13;42.98
59240;BME280;45010;53.640;10.578;2022-11-14T00:13:23;101616.06;;;23.17;42.93
59240;BME280;45010;53.640;10.578;2022-11-14T00:16:23;101607.47;;;23.15;42.94
59240;BME280;45010;53.640;10.578;2022-11-14T00:19:24;101595.97;;;23.08;43.10
59240;BME280;45010;53.640;10.578;2022-11-14T00:22:24;101604.19;;;23.13;42.99
59240;BME280;45010;53.640;10.578;2022-11-14T00:25:24;101593.94;;;23.10;42.86
59240;BME280;45010;53.640;10.578;2022-11-14T00:28:25;101593.94;;;23.10;42.94
59240;BME280;45010;53.640;10.578;2022-11-14T00:31:25;101597.63;;;23.09;42.85
59240;BME280;45010;53.640;10.578;2022-11-14T00:34:25;101573.84;;;23.01;43.06
59240;BME280;45010;53.640;10.578;2022-11-14T00:37:26;101555.81;;;22.89;43.27
59240;BME280;45010;53.640;10.578;2022-11-14T00:40:26;101582.06;;;23.06;43.07
59240;BME280;45010;53.640;10.578;2022-11-14T00:43:26;101576.13;;;23.04;43.27
59240;BME280;45010;53.640;10.578;2022-11-14T00:46:27;101579.16;;;23.01;42.86
59240;BME280;45010;53.640;10.578;2022-11-14T00:49:27;101577.53;;;23.00;43.75
59240;BME280;45010;53.640;10.578;2022-11-14T00:52:28;101575.91;;;22.98;43.28
59240;BME280;45010;53.640;10.578;2022-11-14T00:55:28;101566.28;;;22.97;42.99
59240;BME280;45010;53.640;10.578;2022-11-14T00:58:28;101570.16;;;22.95;43.14
59240;BME280;45010;53.640;10.578;2022-11-14T01:01:29;101540.63;;;22.83;43.09
59240;BME280;45010;53.640;10.578;2022-11-14T01:04:29;101564.00;;;22.94;43.03
59240;BME280;45010;53.640;10.578;2022-11-14T01:07:29;101556.44;;;22.91;43.25
59240;BME280;45010;53.640;10.578;2022-11-14T01:10:30;101555.41;;;22.92;43.10
59240;BME280;45010;53.640;10.578;2022-11-14T01:13:31;101545.78;;;22.84;42.99
59240;BME280;45010;53.640;10.578;2022-11-14T01:16:31;101555.81;;;22.89;42.98
59240;BME280;45010;53.640;10.578;2022-11-14T01:19:31;101547.22;;;22.87;43.41
59240;BME280;45010;53.640;10.578;2022-11-14T01:22:32;101507.44;;;22.65;42.93
59240;BME280;45010;53.640;10.578;2022-11-14T01:25:34;101543.53;;;22.88;43.24
59240;BME280;45010;53.640;10.578;2022-11-14T01:28:34;101538.63;;;22.85;43.01
59240;BME280;45010;53.640;10.578;2022-11-14T01:31:35;101497.63;;;22.66;43.34
59240;BME280;45010;53.640;10.578;2022-11-14T01:34:35;101526.13;;;22.86;43.09
59240;BME280;45010;53.640;10.578;2022-11-14T01:37:36;101516.69;;;22.83;43.28
59240;BME280;45010;53.640;10.578;2022-11-14T01:40:41;101520.38;;;22.82;42.99
59240;BME280;45010;53.640;10.578;2022-11-14T01:43:42;101513.44;;;22.81;43.06
59240;BME280;45010;53.640;10.578;2022-11-14T01:46:46;101509.13;;;22.80;43.51
59240;BME280;45010;53.640;10.578;2022-11-14T01:49:53;101489.06;;;22.70;43.14
59240;BME280;45010;53.640;10.578;2022-11-14T01:52:54;101507.88;;;22.76;43.40
59240;BME280;45010;53.640;10.578;2022-11-14T01:55:58;101475.53;;;22.65;43.18
59240;BME280;45010;53.640;10.578;2022-11-14T01:59:07;101480.03;;;22.65;43.45
59240;BME280;45010;53.640;10.578;2022-11-14T02:02:11;101473.28;;;22.62;43.67
59240;BME280;45010;53.640;10.578;2022-11-14T02:05:14;101473.09;;;22.70;43.23
59240;BME280;45010;53.640;10.578;2022-11-14T02:08:16;101427.59;;;22.45;43.63
59240;BME280;45010;53.640;10.578;2022-11-14T02:11:17;101463.91;;;22.66;43.53
59240;BME280;45010;53.640;10.578;2022-11-14T02:14:17;101466.56;;;22.66;43.23
59240;BME280;45010;53.640;10.578;2022-11-14T02:17:18;101455.06;;;22.59;43.31
59240;BME280;45010;53.640;10.578;2022-11-14T02:20:26;101461.63;;;22.63;43.62
59240;BME280;45010;53.640;10.578;2022-11-14T02:23:32;101446.84;;;22.54;43.59
59240;BME280;45010;53.640;10.578;2022-11-14T02:26:32;101448.94;;;22.59;43.74
59240;BME280;45010;53.640;10.578;2022-11-14T02:29:34;101443.44;;;22.60;43.83
59240;BME280;45010;53.640;10.578;2022-11-14T02:32:34;101439.09;;;22.59;43.53
59240;BME280;45010;53.640;10.578;2022-11-14T02:35:34;101441.16;;;22.57;43.90
59240;BME280;45010;53.640;10.578;2022-11-14T02:38:35;101424.34;;;22.50;43.44
59240;BME280;45010;53.640;10.578;2022-11-14T02:41:35;101436.88;;;22.56;43.80
59240;BME280;45010;53.640;10.578;2022-11-14T02:44:36;101428.88;;;22.56;43.62
59240;BME280;45010;53.640;10.578;2022-11-14T02:47:36;101433.38;;;22.55;43.46
59240;BME280;45010;53.640;10.578;2022-11-14T02:50:36;101422.13;;;22.53;43.53
59240;BME280;45010;53.640;10.578;2022-11-14T02:53:37;101410.03;;;22.51;43.78
59240;BME280;45010;53.640;10.578;2022-11-14T02:56:37;101414.72;;;22.49;43.94
59240;BME280;45010;53.640;10.578;2022-11-14T02:59:38;101415.53;;;22.49;43.57
59240;BME280;45010;53.640;10.578;2022-11-14T03:02:38;101413.06;;;22.48;43.93
59240;BME280;45010;53.640;10.578;2022-11-14T03:05:38;101406.94;;;22.47;43.93
59240;BME280;45010;53.640;10.578;2022-11-14T03:08:39;101393.84;;;22.46;43.80
59240;BME280;45010;53.640;10.578;2022-11-14T03:11:39;101352.06;;;22.19;42.97
59240;BME280;45010;53.640;10.578;2022-11-14T03:14:39;101380.97;;;22.42;43.90
59240;BME280;45010;53.640;10.578;2022-11-14T03:17:40;101380.97;;;22.42;43.94
59240;BME280;45010;53.640;10.578;2022-11-14T03:20:40;101375.66;;;22.42;43.98
59240;BME280;45010;53.640;10.578;2022-11-14T03:23:40;101363.38;;;22.35;43.66
59240;BME280;45010;53.640;10.578;2022-11-14T03:26:41;101351.31;;;22.32;43.79
59240;BME280;45010;53.640;10.578;2022-11-14T03:29:41;101360.31;;;22.38;43.58
59240;BME280;45010;53.640;10.578;2022-11-14T03:32:41;101347.84;;;22.38;43.82
59240;BME280;45010;53.640;10.578;2022-11-14T03:35:42;101352.31;;;22.38;43.97
59240;BME280;45010;53.640;10.578;2022-11-14T03:38:42;101348.03;;;22.37;43.70
59240;BME280;45010;53.640;10.578;2022-11-14T03:41:43;101344.56;;;22.36;43.77
59240;BME280;45010;53.640;10.578;2022-11-14T03:44:43;101339.25;;;22.36;43.29
59240;BME280;45010;53.640;10.578;2022-11-14T03:47:44;101333.31;;;22.34;43.57
59240;BME280;45010;53.640;10.578;2022-11-14T03:50:44;101341.28;;;22.34;43.85
59240;BME280;45010;53.640;10.578;2022-11-14T03:53:44;101329.03;;;22.33;43.95
59240;BME280;45010;53.640;10.578;2022-11-14T03:56:45;101329.03;;;22.33;43.92
59240;BME280;45010;53.640;10.578;2022-11-14T03:59:45;101299.34;;;22.16;43.83
59240;BME280;45010;53.640;10.578;2022-11-14T04:02:45;101329.03;;;22.33;43.85
59240;BME280;45010;53.640;10.578;2022-11-14T04:05:47;101321.47;;;22.30;43.84
59240;BME280;45010;53.640;10.578;2022-11-14T04:08:47;101325.75;;;22.31;44.02
59240;BME280;45010;53.640;10.578;2022-11-14T04:11:48;101323.09;;;22.31;44.10
59240;BME280;45010;53.640;10.578;2022-11-14T04:14:48;101323.25;;;22.23;43.82
59240;BME280;45010;53.640;10.578;2022-11-14T04:17:48;101326.78;;;22.30;43.93
59240;BME280;45010;53.640;10.578;2022-11-14T04:20:49;101319.81;;;22.29;43.97
59240;BME280;45010;53.640;10.578;2022-11-14T04:23:49;101317.16;;;22.29;43.95
59240;BME280;45010;53.640;10.578;2022-11-14T04:26:50;101310.19;;;22.28;43.98
59240;BME280;45010;53.640;10.578;2022-11-14T04:29:50;101308.56;;;22.27;44.11
59240;BME280;45010;53.640;10.578;2022-11-14T04:32:50;101308.56;;;22.27;43.94
59240;BME280;45010;53.640;10.578;2022-11-14T04:35:51;101312.25;;;22.26;43.85
59240;BME280;45010;53.640;10.578;2022-11-14T04:38:51;101306.94;;;22.26;43.98
59240;BME280;45010;53.640;10.578;2022-11-14T04:41:51;101301.59;;;22.19;43.88
59240;BME280;45010;53.640;10.578;2022-11-14T04:44:52;101309.78;;;22.24;44.01
59240;BME280;45010;53.640;10.578;2022-11-14T04:47:52;101303.63;;;22.24;43.91
59240;BME280;45010;53.640;10.578;2022-11-14T04:50:52;101306.28;;;22.24;43.75
59240;BME280;45010;53.640;10.578;2022-11-14T04:53:53;101296.69;;;22.23;44.19
59240;BME280;45010;53.640;10.578;2022-11-14T04:56:53;101289.75;;;22.22;44.22
59240;BME280;45010;53.640;10.578;2022-11-14T04:59:53;101293.00;;;22.24;43.78
59240;BME280;45010;53.640;10.578;2022-11-14T05:02:54;101288.72;;;22.23;44.03
59240;BME280;45010;53.640;10.578;2022-11-14T05:05:59;101290.59;;;22.22;43.92
59240;BME280;45010;53.640;10.578;2022-11-14T05:08:59;101265.41;;;22.11;44.19
59240;BME280;45010;53.640;10.578;2022-11-14T05:12:00;101270.13;;;22.16;44.00
59240;BME280;45010;53.640;10.578;2022-11-14T05:15:00;101266.84;;;22.14;44.08
59240;BME280;45010;53.640;10.578;2022-11-14T05:18:01;101277.50;;;22.21;44.06
59240;BME280;45010;53.640;10.578;2022-11-14T05:21:02;101267.88;;;22.20;44.23
59240;BME280;45010;53.640;10.578;2022-11-14T05:24:02;101262.34;;;22.14;43.90
59240;BME280;45010;53.640;10.578;2022-11-14T05:27:03;101267.88;;;22.20;43.92
59240;BME280;45010;53.640;10.578;2022-11-14T05:30:03;101230.47;;;22.01;44.00
59240;BME280;45010;53.640;10.578;2022-11-14T05:33:04;101246.41;;;22.14;44.19
59240;BME280;45010;53.640;10.578;2022-11-14T05:36:12;101242.53;;;22.10;44.05
59240;BME280;45010;53.640;10.578;2022-11-14T05:39:13;101262.38;;;22.21;44.22
59240;BME280;45010;53.640;10.578;2022-11-14T05:42:13;101265.84;;;22.22;43.96
59240;BME280;45010;53.640;10.578;2022-11-14T05:45:13;101255.41;;;22.20;44.01
59240;BME280;45010;53.640;10.578;2022-11-14T05:48:14;101252.56;;;22.22;43.79
59240;BME280;45010;53.640;10.578;2022-11-14T05:51:14;101259.91;;;22.20;43.95
59240;BME280;45010;53.640;10.578;2022-11-14T05:54:15;101257.25;;;22.20;44.10
59240;BME280;45010;53.640;10.578;2022-11-14T05:57:15;101252.56;;;22.22;44.32
59240;BME280;45010;53.640;10.578;2022-11-14T06:00:16;101256.25;;;22.21;44.04
59240;BME280;45010;53.640;10.578;2022-11-14T06:03:16;101258.91;;;22.21;44.17
59240;BME280;45010;53.640;10.578;2022-11-14T06:06:19;101245.59;;;22.14;44.10
59240;BME280;45010;53.640;10.578;2022-11-14T06:09:19;101255.41;;;22.20;43.92
59240;BME280;45010;53.640;10.578;2022-11-14T06:12:20;101251.75;;;22.21;44.24
59240;BME280;45010;53.640;10.578;2022-11-14T06:15:20;101253.59;;;22.21;44.26
59240;BME280;45010;53.640;10.578;2022-11-14T06:18:20;101261.56;;;22.21;44.04
59240;BME280;45010;53.640;10.578;2022-11-14T06:21:22;101243.16;;;22.12;43.96
59240;BME280;45010;53.640;10.578;2022-11-14T06:24:23;101258.28;;;22.19;44.22
59240;BME280;45010;53.640;10.578;2022-11-14T06:27:23;101263.59;;;22.19;44.00
59240;BME280;45010;53.640;10.578;2022-11-14T06:30:23;101251.13;;;22.19;44.17
59240;BME280;45010;53.640;10.578;2022-11-14T06:33:25;101242.13;;;22.13;44.07
59240;BME280;45010;53.640;10.578;2022-11-14T06:36:25;101153.91;;;21.49;44.11
59240;BME280;45010;53.640;10.578;2022-11-14T06:39:25;101266.88;;;22.21;43.77
59240;BME280;45010;53.640;10.578;2022-11-14T06:42:25;101260.72;;;22.20;43.33
59240;BME280;45010;53.640;10.578;2022-11-14T06:45:26;101250.09;;;22.13;43.81
59240;BME280;45010;53.640;10.578;2022-11-14T06:48:26;101264.00;;;22.22;43.80
59240;BME280;45010;53.640;10.578;2022-11-14T06:51:27;101256.25;;;22.21;43.80
59240;BME280;45010;53.640;10.578;2022-11-14T06:54:27;101263.59;;;22.19;43.96
59240;BME280;45010;53.640;10.578;2022-11-14T06:57:27;101263.59;;;22.19;44.47
59240;BME280;45010;53.640;10.578;2022-11-14T07:00:28;101261.94;;;22.17;44.15
59240;BME280;45010;53.640;10.578;2022-11-14T07:03:28;101261.94;;;22.17;44.35
59240;BME280;45010;53.640;10.578;2022-11-14T07:06:29;101259.09;;;22.19;44.41
59240;BME280;45010;53.640;10.578;2022-11-14T07:09:30;101257.25;;;22.20;44.09
59240;BME280;45010;53.640;10.578;2022-11-14T07:12:30;101264.41;;;22.19;44.02
59240;BME280;45010;53.640;10.578;2022-11-14T07:15:31;101256.44;;;22.19;43.84
59240;BME280;45010;53.640;10.578;2022-11-14T07:18:32;101258.28;;;22.19;43.92
59240;BME280;45010;53.640;10.578;2022-11-14T07:21:33;101243.97;;;22.06;44.12
59240;BME280;45010;53.640;10.578;2022-11-14T07:24:33;101258.25;;;22.12;44.28
59240;BME280;45010;53.640;10.578;2022-11-14T07:27:34;101263.59;;;22.19;44.00
59240;BME280;45010;53.640;10.578;2022-11-14T07:30:34;101254.78;;;22.11;44.10
59240;BME280;45010;53.640;10.578;2022-11-14T07:33:35;101263.59;;;22.19;44.16
59240;BME280;45010;53.640;10.578;2022-11-14T07:36:35;101271.56;;;22.19;44.04
59240;BME280;45010;53.640;10.578;2022-11-14T07:39:35;101261.75;;;22.12;44.03
59240;BME280;45010;53.640;10.578;2022-11-14T07:42:35;101270.53;;;22.20;43.87
59240;BME280;45010;53.640;10.578;2022-11-14T07:45:36;101273.41;;;22.18;44.39
59240;BME280;45010;53.640;10.578;2022-11-14T07:48:36;101261.94;;;22.17;44.39
59240;BME280;45010;53.640;10.578;2022-11-14T07:51:36;101264.59;;;22.17;43.92
59240;BME280;45010;53.640;10.578;2022-11-14T07:54:37;101263.59;;;22.19;43.97
59240;BME280;45010;53.640;10.578;2022-11-14T07:57:38;101253.97;;;22.17;44.25
59240;BME280;45010;53.640;10.578;2022-11-14T08:00:38;101241.31;;;22.20;43.75
59240;BME280;45010;53.640;10.578;2022-11-14T08:03:39;101235.19;;;22.12;43.81
59240;BME280;45010;53.640;10.578;2022-11-14T08:06:39;101249.28;;;22.20;44.19
59240;BME280;45010;53.640;10.578;2022-11-14T08:09:39;101243.97;;;22.20;43.89
59240;BME280;45010;53.640;10.578;2022-11-14T08:12:40;101243.97;;;22.20;43.82
59240;BME280;45010;53.640;10.578;2022-11-14T08:15:40;101242.94;;;22.21;43.76
59240;BME280;45010;53.640;10.578;2022-11-14T08:18:41;101249.28;;;22.20;43.94
59240;BME280;45010;53.640;10.578;2022-11-14T08:21:41;101249.28;;;22.20;43.68
59240;BME280;45010;53.640;10.578;2022-11-14T08:24:42;101249.28;;;22.20;43.51
59240;BME280;45010;53.640;10.578;2022-11-14T08:27:42;101246.63;;;22.20;43.97
59240;BME280;45010;53.640;10.578;2022-11-14T08:30:42;101228.84;;;22.13;43.59
59240;BME280;45010;53.640;10.578;2022-11-14T08:33:42;101242.34;;;22.19;43.99
59240;BME280;45010;53.640;10.578;2022-11-14T08:36:43;101241.53;;;22.18;44.14
59240;BME280;45010;53.640;10.578;2022-11-14T08:39:43;101223.94;;;22.10;43.85
59240;BME280;45010;53.640;10.578;2022-11-14T08:42:44;101240.28;;;22.21;44.52
59240;BME280;45010;53.640;10.578;2022-11-14T08:45:44;101072.59;;;21.14;44.59
59240;BME280;45010;53.640;10.578;2022-11-14T08:48:44;101210.44;;;22.05;44.75
59240;BME280;45010;53.640;10.578;2022-11-14T08:51:45;101251.75;;;22.28;44.77
59240;BME280;45010;53.640;10.578;2022-11-14T08:54:45;101255.66;;;22.32;44.38
59240;BME280;45010;53.640;10.578;2022-11-14T08:57:46;101230.91;;;22.25;44.33
59240;BME280;45010;53.640;10.578;2022-11-14T09:00:46;101250.13;;;22.40;44.42
59240;BME280;45010;53.640;10.578;2022-11-14T09:03:46;101246.03;;;22.44;44.31
59240;BME280;45010;53.640;10.578;2022-11-14T09:06:47;101221.91;;;22.39;44.30
59240;BME280;45010;53.640;10.578;2022-11-14T09:09:47;101227.25;;;22.53;44.38
59240;BME280;45010;53.640;10.578;2022-11-14T09:12:54;101228.50;;;22.57;43.85
59240;BME280;45010;53.640;10.578;2022-11-14T09:15:54;101224.41;;;22.61;43.80
59240;BME280;45010;53.640;10.578;2022-11-14T09:18:55;101217.88;;;22.64;44.03
59240;BME280;45010;53.640;10.578;2022-11-14T09:21:55;101207.22;;;22.57;43.87
59240;BME280;45010;53.640;10.578;2022-11-14T09:24:55;101202.13;;;22.62;43.73
59240;BME280;45010;53.640;10.578;2022-11-14T09:27:56;101213.75;;;22.75;43.20
59240;BME280;45010;53.640;10.578;2022-11-14T09:31:02;101220.31;;;22.79;43.77
59240;BME280;45010;53.640;10.578;2022-11-14T09:34:02;101209.25;;;22.82;43.33
59240;BME280;45010;53.640;10.578;2022-11-14T09:37:03;101208.84;;;22.85;43.36
59240;BME280;45010;53.640;10.578;2022-11-14T09:40:04;101203.94;;;22.89;43.43
59240;BME280;45010;53.640;10.578;2022-11-14T09:43:17;101196.56;;;22.84;42.99
59240;BME280;45010;53.640;10.578;2022-11-14T09:46:26;101200.03;;;22.91;43.19
59240;BME280;45010;53.640;10.578;2022-11-14T09:49:34;101179.16;;;22.88;43.27
59240;BME280;45010;53.640;10.578;2022-11-14T09:52:41;101192.84;;;22.98;43.19
59240;BME280;45010;53.640;10.578;2022-11-14T09:55:47;101181.78;;;23.02;43.44
59240;BME280;45010;53.640;10.578;2022-11-14T09:58:47;101183.00;;;23.06;43.13
59240;BME280;45010;53.640;10.578;2022-11-14T10:02:18;101177.28;;;23.09;43.05
59240;BME280;45010;53.640;10.578;2022-11-14T10:08:55;101189.13;;;23.13;42.72
59240;BME280;45010;53.640;10.578;2022-11-14T10:12:21;101189.13;;;23.13;42.60
59240;BME280;45010;53.640;10.578;2022-11-14T10:15:30;101184.81;;;23.12;42.57
59240;BME280;45010;53.640;10.578;2022-11-14T10:18:57;101161.31;;;23.09;42.71
59240;BME280;45010;53.640;10.578;2022-11-14T10:22:14;101167.44;;;23.16;42.34
59240;BME280;45010;53.640;10.578;2022-11-14T10:28:36;101160.03;;;23.18;41.85
59240;BME280;45010;53.640;10.578;2022-11-14T10:35:16;101128.19;;;23.05;41.55
59240;BME280;45010;53.640;10.578;2022-11-14T10:41:26;101124.06;;;23.09;41.78
59240;BME280;45010;53.640;10.578;2022-11-14T10:44:38;101132.41;;;23.19;41.70
59240;BME280;45010;53.640;10.578;2022-11-14T10:47:53;101099.50;;;23.07;41.74
59240;BME280;45010;53.640;10.578;2022-11-14T10:51:02;101097.47;;;23.09;41.72
59240;BME280;45010;53.640;10.578;2022-11-14T10:54:12;101120.91;;;23.25;41.62
59240;BME280;45010;53.640;10.578;2022-11-14T10:57:17;101082.34;;;23.03;41.82
59240;BME280;45010;53.640;10.578;2022-11-14T11:00:20;101108.63;;;23.24;41.40
59240;BME280;45010;53.640;10.578;2022-11-14T11:03:39;101097.22;;;23.17;41.80
59240;BME280;45010;53.640;10.578;2022-11-14T11:06:40;101099.03;;;23.23;41.71
59240;BME280;45010;53.640;10.578;2022-11-14T11:09:40;101086.56;;;23.17;41.88
59240;BME280;45010;53.640;10.578;2022-11-14T11:12:59;101077.75;;;23.17;41.88
59240;BME280;45010;53.640;10.578;2022-11-14T11:16:02;101085.72;;;23.23;41.44
59240;BME280;45010;53.640;10.578;2022-11-14T11:19:24;101080.66;;;23.15;41.19
59240;BME280;45010;53.640;10.578;2022-11-14T11:22:26;101088.59;;;23.22;41.49
59240;BME280;45010;53.640;10.578;2022-11-14T11:25:29;101072.69;;;23.15;41.52
59240;BME280;45010;53.640;10.578;2022-11-14T11:28:32;101066.31;;;23.16;41.51
59240;BME280;45010;53.640;10.578;2022-11-14T11:31:50;101055.63;;;23.23;41.58
59240;BME280;45010;53.640;10.578;2022-11-14T11:34:51;101057.28;;;23.24;41.40
59240;BME280;45010;53.640;10.578;2022-11-14T11:37:56;101057.03;;;23.25;41.54
59240;BME280;45010;53.640;10.578;2022-11-14T11:41:06;101059.72;;;23.25;40.79
59240;BME280;45010;53.640;10.578;2022-11-14T11:44:16;101056.47;;;23.23;40.09
59240;BME280;45010;53.640;10.578;2022-11-14T11:47:18;101034.41;;;23.16;39.74
59240;BME280;45010;53.640;10.578;2022-11-14T11:50:20;101029.25;;;23.21;39.18
59240;BME280;45010;53.640;10.578;2022-11-14T11:53:28;101021.28;;;23.21;39.15
59240;BME280;45010;53.640;10.578;2022-11-14T11:56:31;100984.53;;;23.05;39.49
59240;BME280;45010;53.640;10.578;2022-11-14T11:59:35;100992.59;;;23.23;39.15
59240;BME280;45010;53.640;10.578;2022-11-14T12:02:40;101014.72;;;23.24;38.75
59240;BME280;45010;53.640;10.578;2022-11-14T12:09:38;101002.41;;;23.23;39.10
59240;BME280;45010;53.640;10.578;2022-11-14T12:19:34;101004.88;;;23.24;39.60
59240;BME280;45010;53.640;10.578;2022-11-14T12:26:33;101000.41;;;23.18;39.53
59240;BME280;45010;53.640;10.578;2022-11-14T12:33:00;101011.41;;;23.29;39.80
59240;BME280;45010;53.640;10.578;2022-11-14T12:36:10;101016.75;;;23.22;39.81
59240;BME280;45010;53.640;10.578;2022-11-14T12:39:30;101027.38;;;23.22;39.82
59240;BME280;45010;53.640;10.578;2022-11-14T12:42:32;101035.34;;;23.29;39.89
59240;BME280;45010;53.640;10.578;2022-11-14T12:48:40;101016.53;;;23.23;39.75
59240;BME280;45010;53.640;10.578;2022-11-14T12:54:46;101025.13;;;23.32;39.80
59240;BME280;45010;53.640;10.578;2022-11-14T12:58:13;101017.13;;;23.32;39.97
59240;BME280;45010;53.640;10.578;2022-11-14T13:05:10;101004.84;;;23.31;39.89
59240;BME280;45010;53.640;10.578;2022-11-14T13:14:54;100980.31;;;23.22;40.06
59240;BME280;45010;53.640;10.578;2022-11-14T13:18:25;100979.88;;;23.25;40.30
59240;BME280;45010;53.640;10.578;2022-11-14T13:25:18;100985.00;;;23.34;40.86
59240;BME280;45010;53.640;10.578;2022-11-14T13:31:44;100980.59;;;23.46;40.97
59240;BME280;45010;53.640;10.578;2022-11-14T13:34:53;100968.75;;;23.42;40.85
59240;BME280;45010;53.640;10.578;2022-11-14T13:38:13;100971.94;;;23.51;41.12
59240;BME280;45010;53.640;10.578;2022-11-14T13:41:42;100965.38;;;23.54;41.05
59240;BME280;45010;53.640;10.578;2022-11-14T13:51:10;100957.56;;;23.59;41.10
59240;BME280;45010;53.640;10.578;2022-11-14T13:54:13;100971.44;;;23.61;41.26
59240;BME280;45010;53.640;10.578;2022-11-14T13:57:30;100982.72;;;23.63;40.93
59240;BME280;45010;53.640;10.578;2022-11-14T14:11:19;100968.53;;;23.69;40.91
59240;BME280;45010;53.640;10.578;2022-11-14T14:15:07;100955.44;;;23.68;40.83
59240;BME280;45010;53.640;10.578;2022-11-14T14:18:22;100952.97;;;23.66;41.08
59240;BME280;45010;53.640;10.578;2022-11-14T14:25:02;100949.72;;;23.64;41.11
59240;BME280;45010;53.640;10.578;2022-11-14T14:28:21;100952.38;;;23.64;41.26
59240;BME280;45010;53.640;10.578;2022-11-14T14:31:32;100955.25;;;23.62;41.06
59240;BME280;45010;53.640;10.578;2022-11-14T14:34:34;100961.41;;;23.63;41.12
59240;BME280;45010;53.640;10.578;2022-11-14T14:37:34;100961.63;;;23.61;41.17
59240;BME280;45010;53.640;10.578;2022-11-14T14:40:36;100955.47;;;23.61;41.27
59240;BME280;45010;53.640;10.578;2022-11-14T14:43:40;100953.03;;;23.59;41.14
59240;BME280;45010;53.640;10.578;2022-11-14T14:46:41;100957.09;;;23.62;41.19
59240;BME280;45010;53.640;10.578;2022-11-14T14:49:42;100951.56;;;23.63;41.22
59240;BME280;45010;53.640;10.578;2022-11-14T14:52:43;100949.72;;;23.64;41.50
59240;BME280;45010;53.640;10.578;2022-11-14T14:55:57;100939.94;;;23.58;41.44
59240;BME280;45010;53.640;10.578;2022-11-14T14:58:57;100954.00;;;23.65;41.73
59240;BME280;45010;53.640;10.578;2022-11-14T15:01:58;100941.50;;;23.65;41.80
59240;BME280;45010;53.640;10.578;2022-11-14T15:04:59;100934.19;;;23.61;41.91
59240;BME280;45010;53.640;10.578;2022-11-14T15:08:00;100895.41;;;23.46;41.94
59240;BME280;45010;53.640;10.578;2022-11-14T15:11:01;100927.97;;;23.67;41.76
59240;BME280;45010;53.640;10.578;2022-11-14T15:14:03;100920.59;;;23.69;41.74
59240;BME280;45010;53.640;10.578;2022-11-14T15:17:03;100897.03;;;23.47;41.79
59240;BME280;45010;53.640;10.578;2022-11-14T15:20:19;100891.25;;;23.50;42.10
59240;BME280;45010;53.640;10.578;2022-11-14T15:23:20;100911.56;;;23.70;42.05
59240;BME280;45010;53.640;10.578;2022-11-14T15:26:20;100914.81;;;23.72;42.01
59240;BME280;45010;53.640;10.578;2022-11-14T15:29:23;100917.25;;;23.74;42.10
59240;BME280;45010;53.640;10.578;2022-11-14T15:32:24;100883.44;;;23.56;42.32
59240;BME280;45010;53.640;10.578;2022-11-14T15:35:28;100902.38;;;23.66;42.35
59240;BME280;45010;53.640;10.578;2022-11-14T15:38:29;100921.34;;;23.76;42.20
59240;BME280;45010;53.640;10.578;2022-11-14T15:41:32;100919.25;;;23.78;42.25
59240;BME280;45010;53.640;10.578;2022-11-14T15:44:33;100901.81;;;23.64;42.20
59240;BME280;45010;53.640;10.578;2022-11-14T15:47:38;100912.69;;;23.81;42.21
59240;BME280;45010;53.640;10.578;2022-11-14T15:50:39;100898.84;;;23.72;42.04
59240;BME280;45010;53.640;10.578;2022-11-14T15:53:44;100908.19;;;23.82;42.43
59240;BME280;45010;53.640;10.578;2022-11-14T15:56:46;100922.09;;;23.84;42.49
59240;BME280;45010;53.640;10.578;2022-11-14T15:59:46;100859.78;;;23.47;42.20
59240;BME280;45010;53.640;10.578;2022-11-14T16:02:49;100902.41;;;23.85;42.27
59240;BME280;45010;53.640;10.578;2022-11-14T16:05:50;100914.66;;;23.86;42.20
59240;BME280;45010;53.640;10.578;2022-11-14T16:08:51;100915.50;;;23.86;42.60
59240;BME280;45010;53.640;10.578;2022-11-14T16:11:51;100901.13;;;23.87;42.26
59240;BME280;45010;53.640;10.578;2022-11-14T16:14:51;100891.31;;;23.88;42.32
59240;BME280;45010;53.640;10.578;2022-11-14T16:17:52;100886.00;;;23.88;42.25
59240;BME280;45010;53.640;10.578;2022-11-14T16:20:52;100895.59;;;23.89;42.02
59240;BME280;45010;53.640;10.578;2022-11-14T16:23:57;100886.00;;;23.88;41.92
59240;BME280;45010;53.640;10.578;2022-11-14T16:26:58;100862.38;;;23.73;42.12
59240;BME280;45010;53.640;10.578;2022-11-14T16:29:58;100893.72;;;23.89;42.02
59240;BME280;45010;53.640;10.578;2022-11-14T16:32:58;100870.97;;;23.75;41.77
59240;BME280;45010;53.640;10.578;2022-11-14T16:35:59;100877.22;;;23.81;41.99
59240;BME280;45010;53.640;10.578;2022-11-14T16:39:00;100885.53;;;23.91;41.76
59240;BME280;45010;53.640;10.578;2022-11-14T16:42:01;100845.00;;;23.70;41.99
59240;BME280;45010;53.640;10.578;2022-11-14T16:45:02;100874.72;;;23.86;41.87
59240;BME280;45010;53.640;10.578;2022-11-14T16:48:03;100878.16;;;23.93;41.61
59240;BME280;45010;53.640;10.578;2022-11-14T16:51:03;100874.44;;;23.94;41.66
59240;BME280;45010;53.640;10.578;2022-11-14T16:54:04;100869.13;;;23.94;41.65
59240;BME280;45010;53.640;10.578;2022-11-14T16:57:04;100876.06;;;23.95;42.00
59240;BME280;45010;53.640;10.578;2022-11-14T17:00:07;100857.28;;;23.90;41.77